Time;durP1;ratioP1;P1;durP2;ratioP2;P2;SDS_P1;SDS_P2;PMS_P1;PMS_P2;Temp;Humidity;BMP_temperature;BMP_pressure;BME280_temperature;BME280_humidity;BME280_pressure;Samples;Min_cycle;Max_cycle;Signal;HPM_P1;HPM_P2
2022/08/30 00:02:36;;;;;;;2.65;2.33;;;17.50;99.90;;;;;;5004395;28;20208;-70
2022/08/30 00:05:03;;;;;;;3.08;2.40;;;17.40;99.90;;;;;;5005598;28;20224;-70
2022/08/30 00:07:28;;;;;;;3.95;2.90;;;17.40;99.90;;;;;;5007664;28;20616;-70
2022/08/30 00:09:54;;;;;;;5.72;2.40;;;17.30;99.90;;;;;;5002661;28;20213;-70
2022/08/30 00:12:22;;;;;;;3.38;2.67;;;17.40;99.90;;;;;;5004084;28;20177;-70
2022/08/30 00:14:48;;;;;;;2.60;2.40;;;17.40;99.90;;;;;;5002809;28;20714;-70
2022/08/30 00:17:13;;;;;;;3.00;2.38;;;17.30;99.90;;;;;;5005323;28;20208;-70
2022/08/30 00:19:39;;;;;;;3.13;2.83;;;17.40;99.90;;;;;;5002479;28;20947;-70
2022/08/30 00:22:06;;;;;;;4.70;2.80;;;17.30;99.90;;;;;;5004049;28;20216;-70
2022/08/30 00:24:31;;;;;;;3.50;3.20;;;17.30;99.90;;;;;;5007397;28;20197;-70
2022/08/30 00:26:57;;;;;;;4.05;2.70;;;17.30;99.90;;;;;;5003282;28;20248;-71
2022/08/30 00:29:23;;;;;;;3.10;2.72;;;17.30;99.90;;;;;;5005806;28;20197;-71
2022/08/30 00:31:48;;;;;;;5.68;3.13;;;17.40;99.90;;;;;;5008870;28;20215;-70
2022/08/30 00:34:15;;;;;;;2.88;2.67;;;17.40;99.90;;;;;;5011078;28;20686;-70
2022/08/30 00:36:42;;;;;;;3.10;2.78;;;17.30;99.90;;;;;;5006379;28;20223;-70
2022/08/30 00:39:07;;;;;;;2.92;2.63;;;17.30;99.90;;;;;;5008653;28;20178;-69
2022/08/30 00:41:33;;;;;;;4.47;3.22;;;17.30;99.90;;;;;;5012359;28;20209;-69
2022/08/30 00:44:00;;;;;;;3.25;2.95;;;17.30;99.90;;;;;;5006481;28;20330;-69
2022/08/30 00:46:26;;;;;;;2.78;2.58;;;17.30;99.90;;;;;;5005875;28;20584;-70
2022/08/30 00:48:52;;;;;;;4.10;3.08;;;17.30;99.90;;;;;;5008875;28;20213;-70
2022/08/30 00:51:20;;;;;;;3.83;3.22;;;17.30;99.90;;;;;;5007555;28;20173;-70
2022/08/30 00:53:49;;;;;;;3.65;3.35;;;17.30;99.90;;;;;;5007000;28;20216;-70
2022/08/30 00:56:16;;;;;;;4.78;3.25;;;17.20;99.90;;;;;;5008958;28;20291;-70
2022/08/30 00:58:46;;;;;;;4.93;3.22;;;17.20;99.90;;;;;;5005147;28;20205;-70
2022/08/30 01:01:12;;;;;;;3.50;3.20;;;17.20;99.90;;;;;;5007135;28;20695;-70
2022/08/30 01:03:38;;;;;;;4.53;3.20;;;17.10;99.90;;;;;;5008114;28;20200;-70
2022/08/30 01:06:06;;;;;;;3.70;3.13;;;17.10;99.90;;;;;;5010735;28;20185;-70
2022/08/30 01:08:32;;;;;;;5.45;3.65;;;17.10;99.90;;;;;;5009801;28;20291;-70
2022/08/30 01:10:58;;;;;;;3.55;2.88;;;17.10;99.90;;;;;;5004517;28;20660;-70
2022/08/30 01:13:25;;;;;;;3.75;3.35;;;17.10;99.90;;;;;;5005707;28;20635;-70
2022/08/30 01:15:52;;;;;;;3.92;3.55;;;17.10;99.90;;;;;;5009632;28;20224;-70
2022/08/30 01:18:18;;;;;;;5.80;3.42;;;17.10;99.90;;;;;;5010256;28;20709;-71
2022/08/30 01:20:59;;;;;;;3.58;3.25;;;17.00;99.90;;;;;;5002765;28;20217;-71
2022/08/30 01:23:26;;;;;;;3.83;3.53;;;17.00;99.90;;;;;;5007409;28;20228;-70
2022/08/30 01:25:53;;;;;;;4.05;3.63;;;17.00;99.90;;;;;;5007542;28;20221;-70
2022/08/30 01:28:22;;;;;;;4.60;3.58;;;17.00;99.90;;;;;;5005730;28;20209;-71
2022/08/30 01:30:48;;;;;;;4.88;4.05;;;16.90;99.90;;;;;;5005068;28;20234;-70
2022/08/30 01:33:14;;;;;;;4.55;4.15;;;17.00;99.90;;;;;;5011380;28;20201;-71
2022/08/30 01:35:48;;;;;;;4.45;4.05;;;16.90;99.90;;;;;;5005686;28;20288;-70
2022/08/30 01:38:17;;;;;;;4.38;3.97;;;16.90;99.90;;;;;;5004683;28;20597;-70
2022/08/30 01:40:43;;;;;;;6.55;4.20;;;16.90;99.90;;;;;;5010515;28;20252;-70
2022/08/30 01:43:11;;;;;;;4.43;3.70;;;17.00;99.90;;;;;;5006964;28;20214;-70
2022/08/30 01:45:36;;;;;;;5.28;4.20;;;16.90;99.90;;;;;;5005256;28;20228;-70
2022/08/30 01:48:02;;;;;;;5.97;4.68;;;17.00;99.90;;;;;;5046415;23;20251;-70
2022/08/30 01:50:27;;;;;;;5.25;4.75;;;17.00;99.90;;;;;;5058336;28;20212;-70
2022/08/30 01:52:54;;;;;;;4.38;3.97;;;16.90;99.90;;;;;;5056792;28;20268;-69
2022/08/30 01:55:19;;;;;;;5.50;4.68;;;16.90;99.90;;;;;;5055096;28;20225;-70
2022/08/30 01:57:46;;;;;;;4.90;4.00;;;16.90;99.90;;;;;;5054207;28;20561;-69
2022/08/30 02:00:12;;;;;;;5.43;4.85;;;16.90;99.90;;;;;;5054954;28;20179;-70
2022/08/30 02:02:38;;;;;;;5.65;5.15;;;17.00;99.90;;;;;;5059913;28;20226;-68
2022/08/30 02:05:05;;;;;;;5.90;5.15;;;16.90;99.90;;;;;;5057272;28;20239;-69
2022/08/30 02:07:30;;;;;;;4.55;4.10;;;16.90;99.90;;;;;;5056046;28;20206;-69
2022/08/30 02:09:56;;;;;;;6.47;4.93;;;16.90;99.90;;;;;;5056024;28;20305;-69
2022/08/30 02:12:22;;;;;;;4.65;4.25;;;16.90;99.90;;;;;;5061319;28;20277;-69
2022/08/30 02:14:48;;;;;;;6.03;4.20;;;16.80;99.90;;;;;;5053939;28;20604;-69
2022/08/30 02:17:15;;;;;;;4.88;4.43;;;16.80;99.90;;;;;;5054017;28;20207;-69
2022/08/30 02:19:41;;;;;;;5.75;4.78;;;16.80;99.90;;;;;;5059655;28;20574;-69
2022/08/30 02:22:07;;;;;;;4.75;4.35;;;16.70;99.90;;;;;;5051256;28;20203;-69
2022/08/30 02:24:32;;;;;;;5.40;4.90;;;16.70;99.90;;;;;;5052931;28;20685;-69
2022/08/30 02:26:58;;;;;;;5.20;4.65;;;16.70;99.90;;;;;;5059889;28;20187;-69
2022/08/30 02:29:24;;;;;;;5.75;4.95;;;16.70;99.90;;;;;;5062426;28;20818;-69
2022/08/30 02:31:50;;;;;;;7.75;5.57;;;16.70;99.90;;;;;;5059449;28;20582;-69
2022/08/30 02:34:17;;;;;;;6.85;5.07;;;16.60;99.90;;;;;;5060055;28;20212;-69
2022/08/30 02:36:43;;;;;;;6.18;5.57;;;16.60;99.90;;;;;;5061081;28;20211;-69
2022/08/30 02:39:11;;;;;;;5.68;4.80;;;16.50;99.90;;;;;;5058725;28;20712;-68
2022/08/30 02:41:37;;;;;;;7.38;5.28;;;16.50;99.90;;;;;;5055701;28;20203;-68
2022/08/30 02:44:04;;;;;;;7.97;5.32;;;16.50;99.90;;;;;;5058747;28;20214;-69
2022/08/30 02:46:30;;;;;;;5.25;4.70;;;16.40;99.90;;;;;;5062027;28;20199;-70
2022/08/30 02:48:56;;;;;;;8.77;5.57;;;16.40;99.90;;;;;;5058168;28;20234;-69
2022/08/30 02:51:21;;;;;;;6.63;5.90;;;16.40;99.90;;;;;;5060256;28;20180;-69
2022/08/30 02:53:48;;;;;;;6.10;5.50;;;16.30;99.90;;;;;;5061102;28;20600;-69
2022/08/30 02:56:14;;;;;;;6.25;5.22;;;16.40;99.90;;;;;;5056598;28;20207;-69
2022/08/30 02:58:41;;;;;;;5.55;5.05;;;16.40;99.90;;;;;;5062221;28;20203;-69
2022/08/30 03:01:08;;;;;;;7.55;6.15;;;16.40;99.90;;;;;;5058871;28;20215;-69
2022/08/30 03:03:33;;;;;;;8.98;5.60;;;16.30;99.90;;;;;;5061133;28;20206;-69
2022/08/30 03:06:02;;;;;;;7.10;6.00;;;16.30;99.90;;;;;;5058746;28;20324;-69
2022/08/30 03:08:28;;;;;;;6.15;5.55;;;16.30;99.90;;;;;;5059839;28;20217;-69
2022/08/30 03:10:55;;;;;;;7.15;5.57;;;16.20;99.90;;;;;;5058478;28;20743;-68
2022/08/30 03:13:21;;;;;;;6.93;5.22;;;16.20;99.90;;;;;;5055133;28;20204;-69
2022/08/30 03:15:49;;;;;;;6.95;5.88;;;16.20;99.90;;;;;;5061287;28;20272;-69
2022/08/30 03:18:15;;;;;;;6.97;6.18;;;16.20;99.90;;;;;;5058756;28;20242;-69
2022/08/30 03:20:41;;;;;;;7.45;6.18;;;16.20;99.90;;;;;;5058324;28;20195;-69
2022/08/30 03:23:06;;;;;;;7.45;5.43;;;16.10;99.90;;;;;;5051612;28;20207;-69
2022/08/30 03:25:32;;;;;;;6.65;5.63;;;16.10;99.90;;;;;;5059197;28;20234;-69
2022/08/30 03:27:58;;;;;;;7.68;6.28;;;16.10;99.90;;;;;;5058069;28;20265;-69
2022/08/30 03:30:24;;;;;;;6.47;5.47;;;16.10;99.90;;;;;;5058634;28;20192;-70
2022/08/30 03:32:50;;;;;;;6.90;5.72;;;16.20;99.90;;;;;;5061646;28;20175;-69
2022/08/30 03:35:17;;;;;;;7.93;6.55;;;16.20;99.90;;;;;;5060080;28;20207;-69
2022/08/30 03:37:43;;;;;;;7.15;5.88;;;16.20;99.90;;;;;;5057113;28;20203;-68
2022/08/30 03:40:11;;;;;;;8.15;6.28;;;16.30;99.90;;;;;;5057555;28;20208;-69
2022/08/30 03:42:36;;;;;;;7.18;6.15;;;16.30;99.90;;;;;;5061854;28;20246;-68
2022/08/30 03:45:04;;;;;;;6.47;5.80;;;16.30;99.90;;;;;;5058531;28;20199;-69
2022/08/30 03:47:29;;;;;;;5.57;5.03;;;16.30;99.90;;;;;;5058256;28;20219;-69
2022/08/30 03:49:56;;;;;;;7.53;5.55;;;16.30;99.90;;;;;;5059531;28;20207;-68
2022/08/30 03:52:21;;;;;;;6.85;6.25;;;16.30;99.90;;;;;;5060206;28;20249;-69
2022/08/30 03:54:47;;;;;;;6.68;5.93;;;16.30;99.90;;;;;;5058039;28;20304;-68
2022/08/30 03:57:14;;;;;;;5.88;5.28;;;16.30;99.90;;;;;;5059941;28;20191;-68
2022/08/30 03:59:39;;;;;;;9.13;6.20;;;16.30;99.90;;;;;;5054558;28;20206;-68
2022/08/30 04:02:05;;;;;;;6.88;6.13;;;16.30;99.90;;;;;;5058448;28;20580;-68
2022/08/30 04:04:31;;;;;;;6.47;5.38;;;16.30;99.90;;;;;;5058163;28;20215;-69
2022/08/30 04:06:57;;;;;;;7.10;5.03;;;16.30;99.90;;;;;;5059501;28;20214;-68
2022/08/30 04:09:23;;;;;;;6.30;5.55;;;16.20;99.90;;;;;;5059837;28;20636;-69
2022/08/30 04:11:49;;;;;;;6.22;5.40;;;16.30;99.90;;;;;;5059062;28;20198;-68
2022/08/30 04:14:15;;;;;;;9.68;5.57;;;16.20;99.90;;;;;;5056136;28;20207;-69
2022/08/30 04:16:41;;;;;;;11.90;6.20;;;16.20;99.90;;;;;;5059726;28;20676;-69
2022/08/30 04:19:06;;;;;;;5.40;4.90;;;16.20;99.90;;;;;;5058290;28;20220;-69
2022/08/30 04:21:32;;;;;;;6.63;6.00;;;16.10;99.90;;;;;;5057653;28;20179;-69
2022/08/30 04:23:58;;;;;;;6.93;5.22;;;16.20;99.90;;;;;;5051585;28;20202;-69
2022/08/30 04:26:23;;;;;;;6.00;5.35;;;16.20;99.90;;;;;;5055381;28;20203;-69
2022/08/30 04:28:49;;;;;;;6.07;5.40;;;16.10;99.90;;;;;;5057892;28;20299;-69
2022/08/30 04:31:16;;;;;;;5.40;4.90;;;16.20;99.90;;;;;;5056973;28;20235;-68
2022/08/30 04:33:42;;;;;;;6.85;5.38;;;16.10;99.90;;;;;;5053498;28;20753;-68
2022/08/30 04:36:09;;;;;;;8.50;5.47;;;16.10;99.90;;;;;;5059554;28;20180;-68
2022/08/30 04:38:36;;;;;;;5.70;5.15;;;16.10;99.90;;;;;;5057340;28;20210;-68
2022/08/30 04:41:08;;;;;;;6.93;4.70;;;16.00;99.90;;;;;;5051799;28;20230;-68
2022/08/30 04:43:34;;;;;;;5.85;5.18;;;16.10;99.90;;;;;;5053617;28;20299;-68
2022/08/30 04:46:05;;;;;;;5.43;4.30;;;16.10;99.90;;;;;;5058428;28;20714;-69
2022/08/30 04:48:31;;;;;;;5.25;4.43;;;16.10;99.90;;;;;;5053821;28;20570;-69
2022/08/30 04:50:56;;;;;;;4.70;4.22;;;16.20;99.90;;;;;;5053877;28;20179;-68
2022/08/30 04:53:22;;;;;;;6.43;5.18;;;16.30;99.90;;;;;;5054988;28;20200;-69
2022/08/30 04:55:48;;;;;;;5.57;5.07;;;16.20;99.90;;;;;;5058681;28;20238;-68
2022/08/30 04:58:13;;;;;;;5.60;4.78;;;16.30;99.90;;;;;;5051436;28;20228;-69
2022/08/30 05:00:41;;;;;;;4.70;4.25;;;16.30;99.90;;;;;;5053940;28;20203;-68
2022/08/30 05:03:07;;;;;;;5.47;4.90;;;16.30;99.90;;;;;;5056527;28;20395;-68
2022/08/30 05:05:38;;;;;;;6.32;5.05;;;16.40;99.90;;;;;;5053727;28;20273;-69
2022/08/30 05:08:06;;;;;;;6.20;5.55;;;16.40;99.90;;;;;;5053809;28;20299;-68
2022/08/30 05:10:33;;;;;;;5.40;4.90;;;16.40;99.90;;;;;;5049390;28;20203;-70
2022/08/30 05:12:59;;;;;;;7.18;5.53;;;16.50;99.90;;;;;;5059844;28;20234;-69
2022/08/30 05:15:24;;;;;;;8.45;5.63;;;16.60;99.90;;;;;;5052356;28;20218;-69
2022/08/30 05:17:50;;;;;;;7.13;6.20;;;16.70;99.90;;;;;;5059725;28;20210;-68
2022/08/30 05:20:16;;;;;;;7.18;5.93;;;16.60;99.90;;;;;;5058974;28;20203;-68
2022/08/30 05:22:49;;;;;;;5.72;5.03;;;16.70;99.90;;;;;;5057325;28;20203;-68
2022/08/30 05:25:23;;;;;;;5.78;5.25;;;16.70;99.90;;;;;;5055359;28;20349;-68
2022/08/30 05:27:49;;;;;;;6.32;5.18;;;16.70;99.90;;;;;;5060633;28;20222;-68
2022/08/30 05:30:16;;;;;;;6.65;5.80;;;16.80;99.90;;;;;;5060795;28;20179;-68
2022/08/30 05:32:41;;;;;;;7.05;5.40;;;16.80;99.90;;;;;;5054877;28;20223;-68
2022/08/30 05:35:10;;;;;;;7.03;5.88;;;16.90;99.90;;;;;;5058508;28;20701;-68
2022/08/30 05:37:36;;;;;;;10.25;5.15;;;17.00;99.90;;;;;;5060336;28;20208;-69
2022/08/30 05:40:02;;;;;;;8.00;5.88;;;17.10;99.90;;;;;;5053953;28;20249;-69
2022/08/30 05:42:28;;;;;;;7.32;5.55;;;17.10;99.90;;;;;;5057104;28;20187;-69
2022/08/30 05:44:53;;;;;;;8.00;5.10;;;17.20;99.90;;;;;;5060598;28;20207;-68
2022/08/30 05:47:20;;;;;;;5.25;4.75;;;17.30;99.90;;;;;;5060970;28;20211;-70
2022/08/30 05:49:46;;;;;;;8.07;5.72;;;17.30;99.90;;;;;;5055605;28;20210;-70
2022/08/30 05:52:14;;;;;;;7.10;5.63;;;17.40;99.90;;;;;;5056980;28;20210;-68
2022/08/30 05:54:40;;;;;;;7.38;5.90;;;17.50;99.90;;;;;;5060439;28;20286;-68
2022/08/30 05:57:06;;;;;;;8.68;5.82;;;17.60;99.90;;;;;;5058578;28;20199;-69
2022/08/30 05:59:32;;;;;;;6.03;5.43;;;17.70;99.90;;;;;;5054573;28;20265;-68
2022/08/30 06:01:58;;;;;;;10.65;5.90;;;17.80;99.90;;;;;;5059556;28;20246;-69
2022/08/30 06:04:24;;;;;;;5.38;4.85;;;17.80;99.90;;;;;;5055459;28;20613;-69
2022/08/30 06:06:49;;;;;;;10.80;6.05;;;17.80;99.90;;;;;;5054320;28;20219;-68
2022/08/30 06:09:15;;;;;;;7.22;6.28;;;17.80;99.90;;;;;;5055059;28;20661;-68
2022/08/30 06:11:42;;;;;;;8.93;5.63;;;17.80;99.90;;;;;;5058135;28;20677;-70
2022/08/30 06:14:08;;;;;;;6.53;5.75;;;17.80;99.90;;;;;;5057605;28;20217;-69
2022/08/30 06:16:34;;;;;;;7.10;5.65;;;17.80;99.90;;;;;;5054455;28;20694;-69
2022/08/30 06:19:00;;;;;;;9.13;6.43;;;17.80;99.90;;;;;;5059015;28;20572;-68
2022/08/30 06:21:35;;;;;;;11.63;5.95;;;17.80;99.90;;;;;;5058427;28;20186;-70
2022/08/30 06:24:04;;;;;;;8.52;6.28;;;17.80;99.90;;;;;;5054530;28;20286;-68
2022/08/30 06:26:30;;;;;;;8.00;6.00;;;17.90;99.90;;;;;;5055396;28;20204;-70
2022/08/30 06:28:56;;;;;;;9.70;5.35;;;17.90;99.90;;;;;;5060566;28;20207;-69
2022/08/30 06:31:23;;;;;;;6.78;5.70;;;18.00;99.90;;;;;;5055672;28;20206;-69
2022/08/30 06:33:50;;;;;;;9.95;5.95;;;18.10;99.90;;;;;;5055700;28;20239;-68
2022/08/30 06:36:22;;;;;;;8.15;5.63;;;18.10;99.90;;;;;;5057003;28;20176;-69
2022/08/30 06:38:54;;;;;;;7.70;6.20;;;18.10;99.90;;;;;;5062082;28;20215;-68
2022/08/30 06:41:22;;;;;;;7.10;6.40;;;18.10;99.90;;;;;;5052010;28;20310;-69
2022/08/30 06:43:48;;;;;;;9.18;6.50;;;18.30;99.90;;;;;;5055685;28;20291;-69
2022/08/30 06:46:17;;;;;;;9.27;6.07;;;18.30;99.90;;;;;;5057609;28;20282;-69
2022/08/30 06:48:43;;;;;;;7.72;5.90;;;18.40;99.90;;;;;;5055245;28;20219;-68
2022/08/30 06:51:09;;;;;;;11.48;5.72;;;18.50;99.90;;;;;;5055413;28;20193;-69
2022/08/30 06:53:34;;;;;;;9.77;5.50;;;18.60;99.90;;;;;;5057280;28;20204;-68
2022/08/30 06:56:07;;;;;;;10.85;6.20;;;18.70;99.90;;;;;;5060543;28;20214;-68
2022/08/30 06:58:34;;;;;;;9.57;5.30;;;18.80;99.90;;;;;;5052791;28;20724;-69
2022/08/30 07:01:00;;;;;;;7.53;5.25;;;19.00;99.90;;;;;;5056997;28;20264;-69
2022/08/30 07:03:26;;;;;;;6.63;5.60;;;19.10;99.90;;;;;;5057761;28;20650;-69
2022/08/30 07:05:53;;;;;;;8.02;6.20;;;19.10;99.90;;;;;;5054758;28;20645;-69
2022/08/30 07:08:19;;;;;;;9.02;5.63;;;19.20;99.90;;;;;;5053827;28;20689;-69
2022/08/30 07:10:45;;;;;;;7.93;6.45;;;19.10;99.90;;;;;;5056209;28;20203;-68
2022/08/30 07:13:11;;;;;;;9.07;6.38;;;19.10;99.90;;;;;;5058905;28;20219;-68
2022/08/30 07:15:41;;;;;;;8.77;6.45;;;19.10;99.90;;;;;;5052317;28;20677;-68
2022/08/30 07:20:51;;;;;;;9.05;5.88;;;19.30;99.90;;;;;;5061020;28;20259;-68
2022/08/30 07:23:17;;;;;;;6.90;6.20;;;19.40;99.90;;;;;;5051646;28;20224;-68
2022/08/30 07:25:43;;;;;;;7.18;6.47;;;19.60;99.90;;;;;;5054688;28;20218;-68
2022/08/30 07:28:10;;;;;;;9.93;6.65;;;20.00;99.90;;;;;;5055417;28;20226;-69
2022/08/30 07:30:36;;;;;;;8.23;6.47;;;20.30;99.90;;;;;;5056140;28;20179;-69
2022/08/30 07:33:02;;;;;;;8.15;7.32;;;20.80;99.90;;;;;;5053911;28;20183;-69
2022/08/30 07:35:28;;;;;;;8.65;6.82;;;21.20;99.90;;;;;;5055459;28;20265;-70
2022/08/30 07:37:53;;;;;;;9.57;7.30;;;21.70;99.90;;;;;;5060481;28;20290;-69
2022/08/30 07:40:19;;;;;;;7.40;6.70;;;22.60;99.90;;;;;;5054694;28;20268;-70
2022/08/30 07:42:45;;;;;;;12.13;7.38;;;23.50;99.90;;;;;;5055066;28;20211;-68
2022/08/30 07:45:11;;;;;;;10.43;7.85;;;24.80;99.90;;;;;;5056568;28;20207;-67
2022/08/30 07:47:36;;;;;;;7.93;6.88;;;25.30;99.90;;;;;;5057174;28;20715;-68
2022/08/30 07:50:04;;;;;;;12.45;8.95;;;25.50;99.90;;;;;;5038159;28;20302;-69
2022/08/30 07:52:30;;;;;;;10.18;6.90;;;25.40;99.90;;;;;;5053440;28;20210;-68
2022/08/30 07:54:56;;;;;;;9.90;7.80;;;25.00;99.90;;;;;;5058524;28;20206;-68
2022/08/30 07:57:23;;;;;;;11.57;8.73;;;24.40;99.90;;;;;;5053552;28;20198;-68
2022/08/30 07:59:49;;;;;;;8.52;7.60;;;23.90;99.90;;;;;;5055303;28;20213;-69
2022/08/30 08:02:15;;;;;;;9.00;7.20;;;23.30;99.90;;;;;;5055742;28;20249;-69
2022/08/30 08:04:41;;;;;;;8.43;7.53;;;22.60;99.90;;;;;;5057667;28;20701;-69
2022/08/30 08:07:07;;;;;;;9.25;7.68;;;22.00;99.90;;;;;;5052765;28;20234;-69
2022/08/30 08:09:32;;;;;;;8.40;7.50;;;21.70;99.90;;;;;;5056490;28;20172;-69
2022/08/30 08:11:59;;;;;;;6.75;6.05;;;21.30;99.90;;;;;;5057131;28;20632;-69
2022/08/30 08:14:24;;;;;;;7.25;6.55;;;21.10;99.90;;;;;;5054681;28;20234;-69
2022/08/30 08:16:50;;;;;;;5.85;5.35;;;20.90;99.90;;;;;;5054333;28;20215;-68
2022/08/30 08:19:18;;;;;;;6.63;5.88;;;20.60;99.90;;;;;;5053934;28;20207;-68
2022/08/30 08:21:44;;;;;;;8.57;6.85;;;20.80;99.90;;;;;;5057449;28;20207;-68
2022/08/30 08:24:10;;;;;;;8.32;6.00;;;20.90;99.90;;;;;;5051746;28;20692;-69
2022/08/30 08:26:37;;;;;;;7.63;6.40;;;21.10;99.90;;;;;;5054958;28;20213;-69
2022/08/30 08:29:03;;;;;;;5.80;5.13;;;21.20;99.90;;;;;;5061349;28;20226;-69
2022/08/30 08:31:28;;;;;;;6.85;6.15;;;21.40;99.90;;;;;;5053184;28;20204;-69
2022/08/30 08:33:58;;;;;;;7.65;5.40;;;21.30;99.90;;;;;;5055148;28;20211;-68
2022/08/30 08:36:25;;;;;;;6.28;5.60;;;20.80;99.90;;;;;;5054970;28;20171;-69
2022/08/30 08:38:51;;;;;;;6.47;5.03;;;20.50;99.90;;;;;;5061198;28;20203;-68
2022/08/30 08:41:50;;;;;;;5.85;5.25;;;20.70;99.90;;;;;;5053786;28;20466;-69
2022/08/30 08:44:46;;;;;;;6.70;5.47;;;20.80;99.90;;;;;;5053960;28;20208;-69
2022/08/30 08:47:17;;;;;;;6.43;5.38;;;20.90;99.90;;;;;;5053243;28;22261;-69
2022/08/30 08:49:46;;;;;;;6.13;5.57;;;20.90;99.90;;;;;;5056358;28;20211;-69
2022/08/30 08:55:11;;;;;;;6.65;4.10;;;20.90;99.90;;;;;;5058704;28;20218;-69
2022/08/30 08:57:38;;;;;;;4.82;4.40;;;21.10;99.90;;;;;;5056607;28;20206;-68
2022/08/30 09:00:06;;;;;;;4.50;3.83;;;21.30;99.90;;;;;;5058241;28;20171;-69
2022/08/30 09:02:38;;;;;;;4.55;3.60;;;20.90;99.90;;;;;;5055987;28;20199;-69
2022/08/30 09:05:04;;;;;;;4.35;3.63;;;21.10;99.90;;;;;;5057755;28;20222;-68
2022/08/30 09:07:34;;;;;;;4.55;4.13;;;21.50;99.90;;;;;;5055480;28;20563;-69
2022/08/30 09:10:00;;;;;;;6.57;4.20;;;21.50;99.90;;;;;;5057824;28;20873;-69
2022/08/30 09:12:27;;;;;;;4.55;4.15;;;21.40;99.90;;;;;;5055302;28;20175;-69
2022/08/30 09:14:57;;;;;;;4.97;4.15;;;21.40;99.90;;;;;;5058348;28;20681;-68
2022/08/30 09:17:23;;;;;;;4.07;3.22;;;21.30;99.90;;;;;;5056545;28;20212;-69
2022/08/30 09:19:51;;;;;;;5.32;3.05;;;21.30;99.90;;;;;;5059698;28;20209;-69
2022/08/30 09:22:33;;;;;;;3.17;2.40;;;21.40;99.90;;;;;;5057127;28;20208;-69
2022/08/30 09:25:21;;;;;;;5.13;2.40;;;21.50;99.90;;;;;;5055241;28;20214;-69
2022/08/30 09:27:50;;;;;;;4.43;2.70;;;21.80;99.90;;;;;;5058038;28;20228;-69
2022/08/30 09:30:25;;;;;;;2.40;1.80;;;22.00;99.90;;;;;;5060486;28;20258;-69
2022/08/30 09:32:59;;;;;;;2.72;1.60;;;22.00;99.90;;;;;;5053104;28;20207;-68
2022/08/30 09:35:35;;;;;;;2.17;1.80;;;22.00;99.90;;;;;;5055792;28;20697;-69
2022/08/30 09:38:22;;;;;;;2.65;1.50;;;21.90;99.90;;;;;;5056157;28;20285;-69
2022/08/30 09:40:54;;;;;;;3.80;3.40;;;21.90;99.90;;;;;;5049770;28;20207;-68
2022/08/30 09:43:24;;;;;;;3.55;2.08;;;21.60;99.90;;;;;;5054617;28;20229;-68
2022/08/30 09:45:58;;;;;;;5.25;2.20;;;21.60;99.90;;;;;;5061326;28;20276;-69
2022/08/30 09:48:43;;;;;;;1.90;1.20;;;22.00;99.90;;;;;;5053294;28;20214;-69
2022/08/30 09:51:14;;;;;;;3.03;1.25;;;22.00;99.90;;;;;;5056507;28;20202;-68
2022/08/30 09:53:51;;;;;;;1.95;1.10;;;22.10;99.90;;;;;;5058947;28;20200;-68
2022/08/30 09:56:32;;;;;;;2.45;1.58;;;22.10;99.90;;;;;;5059698;28;20522;-69
2022/08/30 09:59:16;;;;;;;2.70;0.90;;;22.50;99.90;;;;;;5053624;28;20207;-68
2022/08/30 10:01:46;;;;;;;2.40;2.03;;;22.60;99.90;;;;;;5055721;28;20204;-69
2022/08/30 10:04:46;;;;;;;8.15;3.83;;;22.70;99.90;;;;;;5058588;28;20246;-69
2022/08/30 10:07:39;;;;;;;2.63;1.63;;;22.80;99.90;;;;;;5054558;28;20732;-68
2022/08/30 10:10:39;;;;;;;2.15;1.20;;;22.30;99.90;;;;;;5052960;28;20207;-68
2022/08/30 10:13:18;;;;;;;3.17;1.40;;;22.40;99.90;;;;;;5057869;28;20742;-69
2022/08/30 10:16:26;;;;;;;1.30;1.20;;;22.50;99.90;;;;;;5050529;28;20265;-68
2022/08/30 10:19:05;;;;;;;3.17;2.63;;;22.40;99.90;;;;;;5059609;28;20264;-68
2022/08/30 10:21:42;;;;;;;2.70;1.38;;;22.10;99.90;;;;;;5057355;28;20210;-70
2022/08/30 10:24:16;;;;;;;3.35;2.22;;;22.00;99.90;;;;;;5055150;28;20284;-69
2022/08/30 10:26:56;;;;;;;1.63;1.10;;;22.30;99.90;;;;;;5054344;28;20278;-69
2022/08/30 10:29:29;;;;;;;1.88;1.40;;;22.80;99.90;;;;;;5056435;28;20245;-69
2022/08/30 10:32:19;;;;;;;1.38;1.23;;;23.20;99.90;;;;;;5050541;28;20220;-69
2022/08/30 10:34:53;;;;;;;1.42;1.25;;;23.50;99.90;;;;;;5053785;28;20746;-69
2022/08/30 10:37:24;;;;;;;1.70;1.27;;;23.70;99.90;;;;;;5057803;28;20227;-70
2022/08/30 10:41:11;;;;;;;1.23;0.90;;;23.80;99.90;;;;;;5058671;28;20220;-69
2022/08/30 10:42:55;;;;;;;1.40;0.95;;;23.80;99.90;;;;;;5053869;28;20214;-69
2022/08/30 10:45:21;;;;;;;1.63;1.00;;;23.60;99.90;;;;;;5057176;28;20605;-69
2022/08/30 10:48:04;;;;;;;1.20;1.10;;;23.40;99.90;;;;;;5059060;28;20269;-69
2022/08/30 10:50:36;;;;;;;2.28;1.48;;;23.40;99.90;;;;;;5055046;28;20725;-69
2022/08/30 10:53:38;;;;;;;1.33;1.23;;;23.90;99.90;;;;;;5058177;28;20203;-69
2022/08/30 10:56:09;;;;;;;2.22;1.50;;;24.10;99.90;;;;;;5056300;28;20263;-69
2022/08/30 10:58:39;;;;;;;1.33;1.08;;;24.00;99.90;;;;;;5053040;28;20673;-69
2022/08/30 11:01:30;;;;;;;1.38;1.20;;;23.90;99.90;;;;;;5051870;28;20700;-68
2022/08/30 11:04:09;;;;;;;1.55;0.60;;;24.30;99.90;;;;;;5055450;28;20211;-69
2022/08/30 11:06:56;;;;;;;1.38;0.98;;;24.60;99.90;;;;;;5052904;28;20198;-69
2022/08/30 11:09:40;;;;;;;0.75;0.63;;;24.30;99.90;;;;;;5055090;28;20179;-69
2022/08/30 11:12:28;;;;;;;2.25;1.10;;;23.70;99.90;;;;;;5054887;28;20176;-69
2022/08/30 11:14:54;;;;;;;1.55;1.00;;;23.80;99.90;;;;;;5050068;28;20200;-68
2022/08/30 11:17:28;;;;;;;2.85;1.20;;;24.30;99.90;;;;;;5054327;28;20290;-69
2022/08/30 11:19:57;;;;;;;0.82;0.77;;;24.60;99.90;;;;;;5059145;28;20301;-69
2022/08/30 11:22:31;;;;;;;1.67;1.20;;;24.70;99.90;;;;;;5055038;28;20303;-69
2022/08/30 11:25:04;;;;;;;2.08;0.95;;;24.50;99.90;;;;;;5054358;28;21000;-69
2022/08/30 11:27:44;;;;;;;4.90;1.25;;;24.40;99.90;;;;;;5055387;28;20206;-70
2022/08/30 11:30:24;;;;;;;2.33;0.60;;;24.40;99.90;;;;;;5059273;28;20250;-69
2022/08/30 11:33:09;;;;;;;1.45;0.90;;;24.00;99.90;;;;;;5051111;28;20234;-69
2022/08/30 11:35:43;;;;;;;1.42;1.10;;;23.90;99.90;;;;;;5051520;28;20721;-69
2022/08/30 11:38:24;;;;;;;2.03;1.10;;;24.30;99.90;;;;;;5058634;28;21108;-69
2022/08/30 11:40:57;;;;;;;1.67;0.93;;;24.30;99.90;;;;;;5048007;28;20200;-69
2022/08/30 11:43:36;;;;;;;1.60;1.23;;;24.30;99.90;;;;;;5043307;28;20204;-69
2022/08/30 11:46:23;;;;;;;0.88;0.80;;;24.40;99.90;;;;;;5054503;28;20222;-69
2022/08/30 11:48:51;;;;;;;2.42;1.40;;;24.50;99.90;;;;;;5046525;28;20906;-69
2022/08/30 11:51:48;;;;;;;1.58;0.98;;;24.40;99.90;;;;;;5054388;28;20183;-69
2022/08/30 11:54:33;;;;;;;1.55;1.00;;;24.40;99.90;;;;;;5056259;28;20587;-69
2022/08/30 11:57:28;;;;;;;3.28;1.30;;;24.20;99.90;;;;;;5052933;28;20195;-68
2022/08/30 12:00:07;;;;;;;2.42;1.00;;;23.90;99.90;;;;;;5051850;28;20545;-69
2022/08/30 12:02:51;;;;;;;4.75;2.53;;;23.90;99.90;;;;;;5053934;28;20203;-69
2022/08/30 12:05:41;;;;;;;3.92;1.77;;;23.20;99.90;;;;;;5054267;28;20215;-69
2022/08/30 12:08:23;;;;;;;1.63;1.45;;;23.20;99.90;;;;;;5054375;28;20262;-68
2022/08/30 12:10:58;;;;;;;1.23;0.80;;;23.20;99.90;;;;;;5054565;28;20253;-69
2022/08/30 12:13:41;;;;;;;1.92;0.70;;;23.20;99.90;;;;;;5054401;28;20199;-69
2022/08/30 12:16:13;;;;;;;0.70;0.60;;;23.40;99.90;;;;;;5053908;28;20210;-69
2022/08/30 12:18:42;;;;;;;2.13;0.77;;;23.40;99.90;;;;;;5052947;28;20195;-69
2022/08/30 12:21:11;;;;;;;1.33;1.17;;;23.50;99.90;;;;;;5057942;28;20190;-69
2022/08/30 12:24:00;;;;;;;2.53;1.52;;;23.60;99.90;;;;;;5056834;28;20206;-71
2022/08/30 12:26:25;;;;;;;1.35;0.80;;;24.00;99.90;;;;;;5059431;28;20274;-69
2022/08/30 12:29:03;;;;;;;1.85;0.90;;;24.10;99.90;;;;;;5063462;28;20712;-69
2022/08/30 12:31:29;;;;;;;1.95;1.08;;;24.20;99.90;;;;;;5055964;28;20209;-69
2022/08/30 12:34:01;;;;;;;1.10;0.80;;;24.00;99.90;;;;;;5058302;28;20298;-69
2022/08/30 12:36:47;;;;;;;2.35;1.13;;;23.90;99.90;;;;;;5058069;28;20176;-69
2022/08/30 12:39:16;;;;;;;2.10;1.25;;;24.10;99.90;;;;;;5060937;28;20203;-69
2022/08/30 12:41:43;;;;;;;3.45;1.30;;;24.10;99.90;;;;;;5055209;28;20204;-69
2022/08/30 12:44:15;;;;;;;2.30;1.20;;;24.30;99.90;;;;;;5059217;28;20324;-69
2022/08/30 12:46:44;;;;;;;2.17;1.40;;;24.40;99.90;;;;;;5062551;28;20242;-70
2022/08/30 12:49:12;;;;;;;2.47;1.27;;;24.40;99.90;;;;;;5055465;28;20219;-68
2022/08/30 12:51:41;;;;;;;2.08;1.10;;;24.50;99.90;;;;;;5057107;28;20834;-69
2022/08/30 12:54:12;;;;;;;2.50;1.35;;;24.40;99.90;;;;;;5061894;28;20183;-69
2022/08/30 12:57:06;;;;;;;1.75;1.40;;;24.40;99.90;;;;;;5062561;28;20291;-70
2022/08/30 12:59:52;;;;;;;1.42;1.30;;;24.40;99.90;;;;;;5057409;28;20212;-70
2022/08/30 13:02:26;;;;;;;2.83;2.15;;;24.50;99.90;;;;;;5058560;28;20206;-69
2022/08/30 13:04:54;;;;;;;4.18;2.20;;;24.50;99.90;;;;;;5057464;28;20245;-68
2022/08/30 13:07:34;;;;;;;2.33;1.30;;;24.60;99.90;;;;;;5055358;28;20758;-69